createdAt,value
2019-02-17T00:02:09.623Z,96.46
2019-02-17T00:04:38.760Z,96.60
2019-02-17T00:07:07.870Z,96.29
2019-02-17T00:09:36.997Z,95.95
2019-02-17T00:12:06.270Z,95.77
2019-02-17T00:14:35.407Z,95.85
2019-02-17T00:17:04.579Z,96.22
2019-02-17T00:19:33.711Z,96.48
2019-02-17T00:22:02.927Z,96.75
2019-02-17T00:24:32.148Z,97.21
2019-02-17T00:27:01.250Z,97.32
2019-02-17T00:29:30.389Z,96.37
2019-02-17T00:31:59.756Z,96.35
2019-02-17T00:34:29.308Z,96.77
2019-02-17T00:36:58.757Z,96.79
2019-02-17T00:39:27.907Z,96.99
2019-02-17T00:41:57.035Z,96.94
2019-02-17T00:44:26.193Z,96.97
2019-02-17T00:46:55.648Z,97.06
2019-02-17T00:49:24.829Z,96.82
2019-02-17T00:51:53.944Z,96.75
2019-02-17T00:54:23.087Z,96.83
2019-02-17T00:56:52.204Z,96.56
2019-02-17T00:59:21.355Z,96.73
2019-02-17T01:01:50.513Z,97.05
2019-02-17T01:04:19.672Z,96.90
2019-02-17T01:06:48.834Z,96.93
2019-02-17T01:09:18.276Z,96.95
2019-02-17T01:11:47.507Z,96.90
2019-02-17T01:14:16.767Z,96.89
2019-02-17T01:16:45.854Z,96.72
2019-02-17T01:19:15.541Z,96.75
2019-02-17T01:21:44.664Z,96.80
2019-02-17T01:24:13.782Z,96.78
2019-02-17T01:26:42.955Z,96.81
2019-02-17T01:29:20.119Z,96.83
2019-02-17T01:31:42.999Z,96.66
2019-02-17T01:34:12.421Z,96.68
2019-02-17T01:36:41.568Z,96.84
2019-02-17T01:39:10.709Z,96.87
2019-02-17T01:41:39.812Z,96.96
2019-02-17T01:44:08.934Z,96.98
2019-02-17T01:46:38.619Z,97.13
2019-02-17T01:49:07.832Z,97.41
2019-02-17T01:51:36.946Z,97.53
2019-02-17T01:54:06.055Z,97.67
2019-02-17T01:56:35.231Z,97.73
2019-02-17T01:59:04.451Z,97.63
2019-02-17T02:01:33.599Z,97.73
2019-02-17T02:04:02.697Z,97.68
2019-02-17T02:06:31.845Z,97.32
2019-02-17T02:09:00.972Z,97.47
2019-02-17T02:11:30.133Z,97.36
2019-02-17T02:13:59.309Z,97.49
2019-02-17T02:16:28.454Z,97.72
2019-02-17T02:18:57.589Z,97.71
2019-02-17T02:21:26.741Z,97.47
2019-02-17T02:23:55.887Z,97.44
2019-02-17T02:26:25.193Z,97.74
2019-02-17T02:28:54.336Z,97.95
2019-02-17T02:31:23.467Z,97.78
2019-02-17T02:33:52.616Z,97.78
2019-02-17T02:36:21.763Z,98.04
2019-02-17T02:38:50.902Z,97.88
2019-02-17T02:41:20.028Z,97.83
2019-02-17T02:43:49.167Z,97.95
2019-02-17T02:46:18.299Z,98.39
2019-02-17T02:48:47.508Z,98.53
2019-02-17T02:51:16.628Z,98.53
2019-02-17T02:53:46.226Z,98.67
2019-02-17T02:56:15.848Z,99.00
2019-02-17T02:58:45.103Z,99.50
2019-02-17T03:01:14.452Z,99.51
2019-02-17T03:03:46.026Z,99.37
2019-02-17T03:06:27.539Z,99.15
2019-02-17T03:08:56.670Z,99.12
2019-02-17T03:11:25.790Z,99.02
2019-02-17T03:13:54.932Z,99.28
2019-02-17T03:16:24.113Z,99.46
2019-02-17T03:18:53.537Z,99.06
2019-02-17T03:21:22.697Z,98.33
2019-02-17T03:23:51.816Z,98.24
2019-02-17T03:26:20.982Z,98.81
2019-02-17T03:28:50.108Z,99.00
2019-02-17T03:31:19.265Z,99.12
2019-02-17T03:33:48.372Z,99.24
2019-02-17T03:36:17.544Z,99.07
2019-02-17T03:38:46.705Z,98.67
2019-02-17T03:41:17.002Z,98.68
2019-02-17T03:43:46.177Z,98.65
2019-02-17T03:46:15.393Z,98.56
2019-02-17T03:48:44.740Z,98.19
2019-02-17T03:51:15.368Z,98.55
2019-02-17T03:53:44.549Z,98.42
2019-02-17T03:56:13.714Z,98.56
2019-02-17T03:58:42.841Z,98.78
2019-02-17T04:01:11.972Z,99.43
2019-02-17T04:03:41.104Z,99.68
2019-02-17T04:06:10.197Z,99.33
2019-02-17T04:08:39.365Z,99.21
2019-02-17T04:11:08.498Z,98.64
2019-02-17T04:13:38.100Z,99.01
2019-02-17T04:16:07.287Z,99.15
2019-02-17T04:18:36.462Z,99.35
2019-02-17T04:21:05.587Z,99.64
2019-02-17T04:23:34.711Z,99.58
2019-02-17T04:26:03.863Z,99.82
2019-02-17T04:28:33.019Z,99.41
2019-02-17T04:31:02.747Z,99.42
2019-02-17T04:33:31.933Z,99.43
2019-02-17T04:36:01.319Z,99.51
2019-02-17T04:38:30.476Z,99.77
2019-02-17T04:40:59.597Z,99.79
2019-02-17T04:43:28.775Z,99.98
2019-02-17T04:45:58.010Z,100.00
2019-02-17T04:48:27.144Z,100.00
2019-02-17T04:50:56.282Z,99.88
2019-02-17T04:53:25.463Z,99.45
2019-02-17T04:55:54.638Z,99.24
2019-02-17T04:58:24.111Z,99.37
2019-02-17T05:00:53.234Z,99.69
2019-02-17T05:03:22.509Z,99.93
2019-02-17T05:05:51.655Z,99.89
2019-02-17T05:08:20.840Z,99.99
2019-02-17T05:10:50.029Z,99.75
2019-02-17T05:13:19.179Z,99.37
2019-02-17T05:15:48.347Z,99.52
2019-02-17T05:18:17.982Z,99.24
2019-02-17T05:20:47.096Z,99.34
2019-02-17T05:23:16.363Z,99.69
2019-02-17T05:25:45.500Z,99.85
2019-02-17T05:28:14.655Z,99.80
2019-02-17T05:30:52.118Z,99.57
2019-02-17T05:33:15.106Z,99.68
2019-02-17T05:35:44.228Z,99.37
2019-02-17T05:38:13.741Z,99.47
2019-02-17T05:40:42.939Z,99.18
2019-02-17T05:43:12.365Z,99.24
2019-02-17T05:45:41.567Z,99.32
2019-02-17T05:48:10.720Z,99.49
2019-02-17T05:50:40.168Z,99.26
2019-02-17T05:53:09.338Z,99.00
2019-02-17T05:55:38.899Z,99.10
2019-02-17T05:58:08.069Z,99.30
2019-02-17T06:00:38.565Z,99.31
2019-02-17T06:03:07.750Z,99.16
2019-02-17T06:05:36.892Z,99.02
2019-02-17T06:08:06.028Z,99.16
2019-02-17T06:10:35.273Z,99.25
2019-02-17T06:13:04.821Z,99.21
2019-02-17T06:15:33.976Z,99.24
2019-02-17T06:18:03.097Z,99.57
2019-02-17T06:20:32.234Z,99.38
2019-02-17T06:23:01.424Z,99.42
2019-02-17T06:25:30.608Z,99.62
2019-02-17T06:27:59.735Z,100.00
2019-02-17T06:30:28.903Z,100.00
2019-02-17T06:32:58.019Z,99.76
2019-02-17T06:35:27.242Z,99.35
2019-02-17T06:37:56.450Z,99.37
2019-02-17T06:40:25.612Z,99.59
2019-02-17T06:42:54.817Z,99.62
2019-02-17T06:45:23.976Z,99.41
2019-02-17T06:47:53.071Z,99.41
2019-02-17T06:50:22.256Z,99.27
2019-02-17T06:52:51.404Z,98.81
2019-02-17T06:55:27.388Z,98.78
2019-02-17T06:57:56.929Z,98.81
2019-02-17T07:00:31.511Z,98.78
2019-02-17T07:03:00.877Z,98.83
2019-02-17T07:05:48.939Z,99.09
2019-02-17T07:08:18.090Z,99.57
2019-02-17T07:10:47.256Z,99.69
2019-02-17T07:13:16.371Z,99.65
2019-02-17T07:15:45.802Z,99.50
2019-02-17T07:18:15.558Z,99.30
2019-02-17T07:20:49.110Z,99.03
2019-02-17T07:23:18.384Z,99.03
2019-02-17T07:25:47.663Z,99.08
2019-02-17T07:28:16.984Z,99.11
2019-02-17T07:30:46.323Z,99.15
2019-02-17T07:33:15.442Z,99.24
2019-02-17T07:35:44.718Z,99.01
2019-02-17T07:38:13.835Z,99.02
2019-02-17T07:40:42.989Z,99.12
2019-02-17T07:43:12.201Z,99.25
2019-02-17T07:45:41.426Z,99.75
2019-02-17T07:48:10.623Z,100.00
2019-02-17T07:50:39.838Z,100.00
2019-02-17T07:53:08.951Z,100.00
2019-02-17T07:55:38.204Z,100.00
2019-02-17T07:58:07.295Z,99.91
2019-02-17T08:00:36.541Z,99.51
2019-02-17T08:03:05.655Z,99.08
2019-02-17T08:05:34.873Z,98.43
2019-02-17T08:08:04.167Z,98.15
2019-02-17T08:10:33.339Z,97.99
2019-02-17T08:13:02.605Z,97.53
2019-02-17T08:15:31.727Z,97.00
2019-02-17T08:18:00.871Z,96.85
2019-02-17T08:20:30.005Z,96.53
2019-02-17T08:22:59.140Z,96.36
2019-02-17T08:25:28.261Z,96.14
2019-02-17T08:27:57.513Z,97.08
2019-02-17T08:30:26.647Z,97.04
2019-02-17T08:32:56.205Z,96.62
2019-02-17T08:35:25.379Z,97.64
2019-02-17T08:37:54.590Z,98.27
2019-02-17T08:40:23.769Z,98.18
2019-02-17T08:42:52.929Z,98.42
2019-02-17T08:45:22.428Z,98.45
2019-02-17T08:47:51.604Z,98.14
2019-02-17T08:50:20.792Z,97.63
2019-02-17T08:52:50.036Z,96.92
2019-02-17T08:55:19.219Z,96.11
2019-02-17T08:57:48.439Z,95.27
2019-02-17T09:00:17.677Z,94.95
2019-02-17T09:02:52.867Z,95.31
2019-02-17T09:05:22.111Z,95.62
2019-02-17T09:07:51.374Z,94.71
2019-02-17T09:10:20.593Z,93.96
2019-02-17T09:12:49.941Z,92.22
2019-02-17T09:15:19.196Z,91.20
2019-02-17T09:17:48.502Z,90.45
2019-02-17T09:20:18.185Z,89.82
2019-02-17T09:22:47.440Z,90.08
2019-02-17T09:25:16.579Z,89.47
2019-02-17T09:27:45.807Z,88.90
2019-02-17T09:30:16.258Z,88.40
2019-02-17T09:32:45.468Z,88.21
2019-02-17T09:35:14.675Z,87.75
2019-02-17T09:37:43.906Z,86.20
2019-02-17T09:40:13.143Z,85.75
2019-02-17T09:42:42.339Z,85.81
2019-02-17T09:45:12.843Z,85.77
2019-02-17T09:47:42.054Z,86.23
2019-02-17T09:50:12.434Z,87.13
2019-02-17T09:52:41.633Z,87.19
2019-02-17T09:55:10.850Z,87.06
2019-02-17T09:57:40.251Z,87.23
2019-02-17T10:00:11.156Z,86.32
2019-02-17T10:02:40.460Z,85.61
2019-02-17T10:05:09.678Z,84.06
2019-02-17T10:07:39.162Z,83.91
2019-02-17T10:10:12.866Z,84.12
2019-02-17T10:12:42.133Z,82.99
2019-02-17T10:15:12.437Z,82.72
2019-02-17T10:17:41.960Z,81.92
2019-02-17T10:20:11.464Z,82.18
2019-02-17T10:22:40.700Z,81.21
2019-02-17T10:25:10.093Z,81.36
2019-02-17T10:27:39.384Z,81.79
2019-02-17T10:30:10.695Z,81.58
2019-02-17T10:32:39.946Z,81.65
2019-02-17T10:35:09.221Z,80.61
2019-02-17T10:37:38.450Z,79.22
2019-02-17T10:40:09.535Z,77.92
2019-02-17T10:42:38.771Z,77.92
2019-02-17T10:45:08.985Z,76.92
2019-02-17T10:47:38.283Z,76.64
2019-02-17T10:50:08.301Z,75.29
2019-02-17T10:52:37.787Z,76.08
2019-02-17T10:55:07.472Z,75.56
2019-02-17T10:57:36.713Z,76.08
2019-02-17T11:00:08.390Z,75.34
2019-02-17T11:02:46.841Z,75.22
2019-02-17T11:05:08.562Z,74.42
2019-02-17T11:07:37.739Z,74.38
2019-02-17T11:10:08.994Z,74.00
2019-02-17T11:12:38.294Z,74.00
2019-02-17T11:15:09.659Z,73.50
2019-02-17T11:17:38.910Z,73.30
2019-02-17T11:20:08.314Z,73.29
2019-02-17T11:22:37.583Z,72.59
2019-02-17T11:25:06.888Z,71.34
2019-02-17T11:27:36.088Z,70.47
2019-02-17T11:30:07.633Z,69.66
2019-02-17T11:32:36.761Z,69.66
2019-02-17T11:35:06.187Z,69.96
2019-02-17T11:37:35.583Z,69.88
2019-02-17T11:40:07.601Z,68.27
2019-02-17T11:42:47.279Z,68.27
2019-02-17T11:45:17.767Z,69.06
2019-02-17T11:47:47.227Z,67.48
2019-02-17T11:50:18.729Z,67.35
2019-02-17T11:52:48.048Z,66.80
2019-02-17T11:55:17.404Z,67.02
2019-02-17T11:57:46.539Z,67.04
2019-02-17T12:00:17.672Z,66.22
2019-02-17T12:02:47.439Z,66.27
2019-02-17T12:05:17.134Z,65.57
2019-02-17T12:07:46.357Z,65.67
2019-02-17T12:10:15.623Z,65.39
2019-02-17T12:12:45.143Z,64.66
2019-02-17T12:15:14.697Z,61.70
2019-02-17T12:17:47.376Z,61.75
2019-02-17T12:20:36.286Z,62.43
2019-02-17T12:23:09.507Z,60.98
2019-02-17T12:25:43.278Z,61.60
2019-02-17T12:28:31.363Z,60.68
2019-02-17T12:31:00.481Z,61.31
2019-02-17T12:33:29.615Z,62.34
2019-02-17T12:35:59.240Z,61.08
2019-02-17T12:38:28.463Z,60.63
2019-02-17T12:40:57.745Z,60.77
2019-02-17T12:43:26.871Z,61.64
2019-02-17T12:45:59.038Z,59.21
2019-02-17T12:48:28.211Z,60.76
2019-02-17T12:50:57.433Z,61.03
2019-02-17T12:53:26.656Z,62.20
2019-02-17T12:55:55.838Z,60.57
2019-02-17T12:58:29.977Z,59.39
2019-02-17T13:00:55.853Z,60.17
2019-02-17T13:03:28.424Z,60.24
2019-02-17T13:05:55.852Z,60.02
2019-02-17T13:08:25.099Z,59.45
2019-02-17T13:10:55.270Z,60.17
2019-02-17T13:13:24.536Z,61.17
2019-02-17T13:15:53.804Z,60.85
2019-02-17T13:18:23.216Z,59.92
2019-02-17T13:20:52.615Z,60.11
2019-02-17T13:23:21.794Z,59.29
2019-02-17T13:25:51.066Z,59.00
2019-02-17T13:28:20.479Z,60.00
2019-02-17T13:30:49.592Z,59.90
2019-02-17T13:33:18.716Z,58.52
2019-02-17T13:35:47.856Z,60.42
2019-02-17T13:38:16.981Z,58.39
2019-02-17T13:40:46.265Z,58.74
2019-02-17T13:43:15.352Z,58.36
2019-02-17T13:45:44.967Z,58.50
2019-02-17T13:48:14.135Z,57.59
2019-02-17T13:50:44.415Z,57.30
2019-02-17T13:53:13.774Z,55.97
2019-02-17T13:55:48.173Z,56.16
2019-02-17T13:58:17.406Z,56.20
2019-02-17T14:00:46.599Z,55.36
2019-02-17T14:03:15.733Z,54.24
2019-02-17T14:05:44.901Z,53.71
2019-02-17T14:08:14.030Z,54.05
2019-02-17T14:10:43.407Z,54.08
2019-02-17T14:13:12.582Z,53.42
2019-02-17T14:15:41.729Z,53.56
2019-02-17T14:18:10.859Z,55.66
2019-02-17T14:20:40.093Z,55.44
2019-02-17T14:23:09.222Z,53.99
2019-02-17T14:25:38.485Z,53.40
2019-02-17T14:28:07.909Z,54.38
2019-02-17T14:30:37.097Z,53.94
2019-02-17T14:33:06.330Z,55.29
2019-02-17T14:35:35.546Z,54.48
2019-02-17T14:38:04.727Z,54.16
2019-02-17T14:40:33.943Z,53.09
2019-02-17T14:43:03.144Z,54.42
2019-02-17T14:45:32.388Z,55.57
2019-02-17T14:48:01.536Z,55.20
2019-02-17T14:50:30.759Z,54.94
2019-02-17T14:52:59.908Z,55.79
2019-02-17T14:55:29.093Z,55.32
2019-02-17T14:58:05.010Z,55.92
2019-02-17T15:00:29.197Z,54.91
2019-02-17T15:02:58.405Z,55.66
2019-02-17T15:05:27.558Z,56.07
2019-02-17T15:07:56.790Z,56.08
2019-02-17T15:10:26.030Z,56.35
2019-02-17T15:12:55.363Z,55.18
2019-02-17T15:15:25.100Z,55.76
2019-02-17T15:17:54.465Z,54.35
2019-02-17T15:20:23.917Z,54.43
2019-02-17T15:22:53.115Z,54.69
2019-02-17T15:25:22.310Z,54.80
2019-02-17T15:27:51.554Z,55.24
2019-02-17T15:30:20.734Z,55.27
2019-02-17T15:32:49.925Z,54.80
2019-02-17T15:35:19.051Z,55.00
2019-02-17T15:37:48.419Z,54.00
2019-02-17T15:40:17.963Z,54.83
2019-02-17T15:42:47.242Z,55.67
2019-02-17T15:45:16.479Z,56.20
2019-02-17T15:47:45.969Z,56.64
2019-02-17T15:50:15.200Z,58.32
2019-02-17T15:52:44.440Z,57.36
2019-02-17T15:55:13.661Z,57.37
2019-02-17T15:57:43.132Z,58.39
2019-02-17T16:00:13.410Z,57.92
2019-02-17T16:02:42.632Z,57.74
2019-02-17T16:05:11.929Z,58.32
2019-02-17T16:07:41.180Z,58.03
2019-02-17T16:10:10.988Z,58.77
2019-02-17T16:12:40.235Z,59.43
2019-02-17T16:15:11.902Z,60.11
2019-02-17T16:17:41.266Z,61.50
2019-02-17T16:20:12.081Z,62.02
2019-02-17T16:22:41.278Z,62.84
2019-02-17T16:25:10.507Z,63.52
2019-02-17T16:27:39.708Z,64.10
2019-02-17T16:30:11.833Z,65.61
2019-02-17T16:32:41.039Z,67.02
2019-02-17T16:35:10.212Z,69.33
2019-02-17T16:37:39.429Z,69.33
2019-02-17T16:40:10.657Z,70.53
2019-02-17T16:42:40.078Z,71.18
2019-02-17T16:45:10.801Z,72.15
2019-02-17T16:47:40.575Z,72.68
2019-02-17T16:50:12.044Z,73.05
2019-02-17T16:52:41.363Z,73.04
2019-02-17T16:55:11.250Z,72.82
2019-02-17T16:57:40.535Z,73.62
2019-02-17T17:00:11.826Z,73.46
2019-02-17T17:02:41.104Z,74.50
2019-02-17T17:05:10.442Z,74.50
2019-02-17T17:07:39.639Z,75.33
2019-02-17T17:10:09.203Z,76.25
2019-02-17T17:12:38.413Z,76.23
2019-02-17T17:15:07.759Z,76.23
2019-02-17T17:17:37.006Z,77.63
2019-02-17T17:20:07.447Z,77.63
2019-02-17T17:22:36.627Z,78.22
2019-02-17T17:25:06.256Z,78.38
2019-02-17T17:27:35.473Z,78.27
2019-02-17T17:30:05.321Z,78.50
2019-02-17T17:32:34.574Z,79.34
2019-02-17T17:35:03.850Z,79.32
2019-02-17T17:37:33.138Z,79.27
2019-02-17T17:40:02.386Z,79.76
2019-02-17T17:42:31.628Z,79.92
2019-02-17T17:45:00.885Z,80.53
2019-02-17T17:47:31.268Z,81.01
2019-02-17T17:50:00.536Z,80.80
2019-02-17T17:52:30.276Z,81.30
2019-02-17T17:54:59.567Z,81.30
2019-02-17T17:57:28.984Z,81.40
2019-02-17T17:59:58.354Z,81.81
2019-02-17T18:02:27.593Z,81.81
2019-02-17T18:04:56.898Z,82.38
2019-02-17T18:07:26.327Z,82.61
2019-02-17T18:09:55.727Z,82.33
2019-02-17T18:12:25.156Z,83.21
2019-02-17T18:14:54.426Z,83.57
2019-02-17T18:17:23.700Z,83.41
2019-02-17T18:19:52.963Z,83.46
2019-02-17T18:22:22.218Z,84.21
2019-02-17T18:24:51.521Z,84.46
2019-02-17T18:27:20.725Z,84.59
2019-02-17T18:29:50.047Z,85.04
2019-02-17T18:32:19.270Z,84.93
2019-02-17T18:34:49.459Z,85.14
2019-02-17T18:37:39.415Z,85.26
2019-02-17T18:40:44.682Z,85.64
2019-02-17T18:43:17.599Z,85.78
2019-02-17T18:46:14.024Z,85.88
2019-02-17T18:48:52.356Z,85.67
2019-02-17T18:51:44.262Z,86.21
2019-02-17T18:54:50.547Z,86.08
2019-02-17T18:57:16.040Z,86.13
2019-02-17T18:59:45.291Z,86.32
2019-02-17T19:02:14.509Z,86.49
2019-02-17T19:04:43.764Z,87.05
2019-02-17T19:07:13.041Z,87.34
2019-02-17T19:09:42.303Z,87.65
2019-02-17T19:12:11.576Z,87.78
2019-02-17T19:14:40.863Z,87.99
2019-02-17T19:17:10.065Z,87.90
2019-02-17T19:19:39.802Z,87.92
2019-02-17T19:22:08.971Z,87.98
2019-02-17T19:24:38.112Z,88.07
2019-02-17T19:27:07.230Z,88.48
2019-02-17T19:29:36.457Z,88.02
2019-02-17T19:32:05.662Z,87.90
2019-02-17T19:34:34.919Z,88.15
2019-02-17T19:37:04.320Z,88.07
2019-02-17T19:39:33.454Z,88.02
2019-02-17T19:42:02.749Z,88.09
2019-02-17T19:44:31.906Z,88.19
2019-02-17T19:47:01.180Z,88.37
2019-02-17T19:49:30.529Z,88.46
2019-02-17T19:51:59.859Z,88.65
2019-02-17T19:54:29.105Z,88.94
2019-02-17T19:56:58.453Z,89.29
2019-02-17T19:59:27.761Z,89.49
2019-02-17T20:01:57.015Z,89.62
2019-02-17T20:04:43.491Z,89.65
2019-02-17T20:07:12.761Z,89.92
2019-02-17T20:09:42.138Z,90.05
2019-02-17T20:12:11.430Z,89.91
2019-02-17T20:14:40.758Z,90.20
2019-02-17T20:17:10.019Z,90.53
2019-02-17T20:19:39.588Z,90.79
2019-02-17T20:22:08.851Z,90.60
2019-02-17T20:24:38.184Z,90.73
2019-02-17T20:27:07.457Z,90.77
2019-02-17T20:29:36.751Z,90.66
2019-02-17T20:32:06.001Z,90.50
2019-02-17T20:34:35.339Z,90.66
2019-02-17T20:37:04.537Z,90.75
2019-02-17T20:39:33.759Z,90.69
2019-02-17T20:42:02.990Z,90.92
2019-02-17T20:44:32.195Z,91.09
2019-02-17T20:47:01.417Z,91.39
2019-02-17T20:49:30.672Z,91.26
2019-02-17T20:51:59.867Z,91.09
2019-02-17T20:54:28.963Z,91.43
2019-02-17T20:56:58.278Z,91.46
2019-02-17T20:59:27.391Z,91.79
2019-02-17T21:01:56.554Z,91.76
2019-02-17T21:04:25.676Z,91.87
2019-02-17T21:06:54.822Z,91.82
2019-02-17T21:09:23.915Z,91.79
2019-02-17T21:11:53.114Z,91.78
2019-02-17T21:14:22.249Z,91.91
2019-02-17T21:16:51.383Z,92.20
2019-02-17T21:19:20.658Z,92.15
2019-02-17T21:21:49.808Z,92.10
2019-02-17T21:24:18.919Z,92.34
2019-02-17T21:26:48.070Z,92.65
2019-02-17T21:29:17.248Z,92.51
2019-02-17T21:31:46.928Z,91.95
2019-02-17T21:34:16.112Z,92.00
2019-02-17T21:36:45.275Z,92.21
2019-02-17T21:39:14.380Z,92.33
2019-02-17T21:41:43.682Z,92.57
2019-02-17T21:44:12.831Z,92.74
2019-02-17T21:46:41.927Z,92.81
2019-02-17T21:49:11.067Z,92.53
2019-02-17T21:51:40.215Z,92.79
2019-02-17T21:54:09.356Z,93.06
2019-02-17T21:56:38.502Z,92.88
2019-02-17T21:59:07.726Z,92.98
2019-02-17T22:01:36.851Z,93.07
2019-02-17T22:04:06.003Z,93.11
2019-02-17T22:06:35.170Z,92.88
2019-02-17T22:09:05.036Z,93.00
2019-02-17T22:11:34.215Z,93.05
2019-02-17T22:14:03.477Z,92.96
2019-02-17T22:16:32.611Z,93.11
2019-02-17T22:19:01.899Z,93.30
2019-02-17T22:21:31.367Z,93.41
2019-02-17T22:24:00.512Z,93.23
2019-02-17T22:26:29.652Z,93.71
2019-02-17T22:28:59.008Z,94.10
2019-02-17T22:31:28.116Z,93.99
2019-02-17T22:33:57.294Z,93.80
2019-02-17T22:36:26.428Z,93.84
2019-02-17T22:38:58.842Z,94.10
2019-02-17T22:41:28.406Z,94.31
2019-02-17T22:43:57.599Z,94.30
2019-02-17T22:46:27.100Z,94.00
2019-02-17T22:48:56.270Z,94.25
2019-02-17T22:51:25.409Z,94.41
2019-02-17T22:53:54.523Z,94.53
2019-02-17T22:56:23.697Z,94.51
2019-02-17T22:58:52.849Z,94.57
2019-02-17T23:01:26.674Z,94.40
2019-02-17T23:03:55.825Z,94.26
2019-02-17T23:06:24.930Z,94.22
2019-02-17T23:08:54.122Z,94.08
2019-02-17T23:11:23.300Z,94.05
2019-02-17T23:13:52.421Z,94.37
2019-02-17T23:16:21.569Z,94.64
2019-02-17T23:18:50.680Z,94.53
2019-02-17T23:21:19.826Z,94.54
2019-02-17T23:23:49.098Z,94.54
2019-02-17T23:26:18.222Z,94.59
2019-02-17T23:28:47.388Z,94.68
2019-02-17T23:31:18.843Z,94.65
2019-02-17T23:33:48.060Z,94.56
2019-02-17T23:36:17.188Z,94.61
2019-02-17T23:38:46.331Z,94.83
2019-02-17T23:41:15.451Z,94.94
2019-02-17T23:43:44.630Z,94.89
2019-02-17T23:46:13.757Z,94.73
2019-02-17T23:48:43.066Z,94.69
2019-02-17T23:51:12.210Z,95.04
2019-02-17T23:53:41.355Z,94.92
2019-02-17T23:56:10.531Z,95.24
2019-02-17T23:58:40.112Z,95.26
